East Selah, Washington
Current Conditions -  °F | °C
As of 3:56 PM on Sunday 23 Nov 2014 (Local Time) from K1YT Reporting Station
Few Clouds Few Clouds  
Wind Chill: 38°   Ceiling: Unl
Heat Index: 45°   Visibility: 10mi
Dew Point: 35°   Wind: 14mph
Humidity: 68%   Direction: 240°WSW
Pressure: 30.13"   Gusts: 20mph
Location:  46.6267°N, 120.424°W
Report Text: K1YT 232356Z AUTO 24012G17KT 10SM FEW210 07/02 A3013 RMK AO2 SLPNO T00710015 10082 20026 52009
Loading
Personal Weather Stations






























Interactive Weather Map New forecast layout! Learn more

10-Day Weather Forecast

Advertisements
Track Severe Weather on mobile